sensor_id;sensor_type;location;lat;lon;timestamp;temperature;humidity
6377;DHT22;3221;48.858;10.128;2022-07-29T00:00:01;19.50;94.40
6377;DHT22;3221;48.858;10.128;2022-07-29T00:02:30;19.50;94.60
6377;DHT22;3221;48.858;10.128;2022-07-29T00:04:58;19.50;94.90
6377;DHT22;3221;48.858;10.128;2022-07-29T00:07:25;19.50;94.90
6377;DHT22;3221;48.858;10.128;2022-07-29T00:09:52;19.50;94.60
6377;DHT22;3221;48.858;10.128;2022-07-29T00:12:21;19.60;94.80
6377;DHT22;3221;48.858;10.128;2022-07-29T00:14:56;19.60;94.60
6377;DHT22;3221;48.858;10.128;2022-07-29T00:17:23;19.60;94.90
6377;DHT22;3221;48.858;10.128;2022-07-29T00:19:51;19.60;94.70
6377;DHT22;3221;48.858;10.128;2022-07-29T00:22:19;19.60;95.20
6377;DHT22;3221;48.858;10.128;2022-07-29T00:24:48;19.50;94.70
6377;DHT22;3221;48.858;10.128;2022-07-29T00:27:16;19.50;94.80
6377;DHT22;3221;48.858;10.128;2022-07-29T00:29:43;19.50;94.60
6377;DHT22;3221;48.858;10.128;2022-07-29T00:32:10;19.40;94.50
6377;DHT22;3221;48.858;10.128;2022-07-29T00:34:36;19.40;94.40
6377;DHT22;3221;48.858;10.128;2022-07-29T00:37:22;19.30;94.30
6377;DHT22;3221;48.858;10.128;2022-07-29T00:39:49;19.20;94.10
6377;DHT22;3221;48.858;10.128;2022-07-29T00:42:16;19.20;93.70
6377;DHT22;3221;48.858;10.128;2022-07-29T00:44:43;19.20;93.70
6377;DHT22;3221;48.858;10.128;2022-07-29T00:47:11;19.20;93.80
6377;DHT22;3221;48.858;10.128;2022-07-29T00:49:39;19.20;93.90
6377;DHT22;3221;48.858;10.128;2022-07-29T00:52:08;19.20;93.50
6377;DHT22;3221;48.858;10.128;2022-07-29T00:54:36;19.30;93.30
6377;DHT22;3221;48.858;10.128;2022-07-29T00:57:10;19.30;93.10
6377;DHT22;3221;48.858;10.128;2022-07-29T00:59:37;19.40;92.90
6377;DHT22;3221;48.858;10.128;2022-07-29T01:02:04;19.50;93.00
6377;DHT22;3221;48.858;10.128;2022-07-29T01:04:32;19.50;92.90
6377;DHT22;3221;48.858;10.128;2022-07-29T01:07:00;19.40;93.00
6377;DHT22;3221;48.858;10.128;2022-07-29T01:09:28;19.40;92.90
6377;DHT22;3221;48.858;10.128;2022-07-29T01:12:19;19.40;92.80
6377;DHT22;3221;48.858;10.128;2022-07-29T01:14:47;19.40;93.00
6377;DHT22;3221;48.858;10.128;2022-07-29T01:17:26;19.40;92.90
6377;DHT22;3221;48.858;10.128;2022-07-29T01:20:12;19.50;93.20
6377;DHT22;3221;48.858;10.128;2022-07-29T01:28:21;19.50;92.60
6377;DHT22;3221;48.858;10.128;2022-07-29T01:30:54;19.60;92.60
6377;DHT22;3221;48.858;10.128;2022-07-29T01:33:24;19.50;92.40
6377;DHT22;3221;48.858;10.128;2022-07-29T01:36:13;19.50;92.50
6377;DHT22;3221;48.858;10.128;2022-07-29T01:38:42;19.50;92.50
6377;DHT22;3221;48.858;10.128;2022-07-29T01:41:14;19.50;92.60
6377;DHT22;3221;48.858;10.128;2022-07-29T01:43:51;19.50;92.70
6377;DHT22;3221;48.858;10.128;2022-07-29T01:46:48;19.50;92.70
6377;DHT22;3221;48.858;10.128;2022-07-29T01:49:20;19.40;92.80
6377;DHT22;3221;48.858;10.128;2022-07-29T01:51:58;19.50;92.80
6377;DHT22;3221;48.858;10.128;2022-07-29T01:54:43;19.50;92.60
6377;DHT22;3221;48.858;10.128;2022-07-29T01:57:14;19.50;92.70
6377;DHT22;3221;48.858;10.128;2022-07-29T01:59:45;19.40;92.70
6377;DHT22;3221;48.858;10.128;2022-07-29T02:02:15;19.40;92.80
6377;DHT22;3221;48.858;10.128;2022-07-29T02:04:44;19.50;92.90
6377;DHT22;3221;48.858;10.128;2022-07-29T02:07:20;19.50;92.60
6377;DHT22;3221;48.858;10.128;2022-07-29T02:09:49;19.50;92.70
6377;DHT22;3221;48.858;10.128;2022-07-29T02:12:18;19.70;92.90
6377;DHT22;3221;48.858;10.128;2022-07-29T02:14:49;19.70;92.40
6377;DHT22;3221;48.858;10.128;2022-07-29T02:17:23;19.70;92.60
6377;DHT22;3221;48.858;10.128;2022-07-29T02:19:55;19.80;92.10
6377;DHT22;3221;48.858;10.128;2022-07-29T02:22:24;19.70;92.10
6377;DHT22;3221;48.858;10.128;2022-07-29T02:24:53;19.70;92.70
6377;DHT22;3221;48.858;10.128;2022-07-29T02:27:20;19.60;92.40
6377;DHT22;3221;48.858;10.128;2022-07-29T02:29:49;19.50;92.40
6377;DHT22;3221;48.858;10.128;2022-07-29T02:32:17;19.50;92.80
6377;DHT22;3221;48.858;10.128;2022-07-29T02:34:46;19.50;93.00
6377;DHT22;3221;48.858;10.128;2022-07-29T02:37:15;19.70;92.90
6377;DHT22;3221;48.858;10.128;2022-07-29T02:39:44;19.70;92.30
6377;DHT22;3221;48.858;10.128;2022-07-29T02:42:14;19.70;92.30
6377;DHT22;3221;48.858;10.128;2022-07-29T02:44:42;19.70;91.90
6377;DHT22;3221;48.858;10.128;2022-07-29T02:52:33;19.70;92.10
6377;DHT22;3221;48.858;10.128;2022-07-29T02:57:43;19.60;92.50
6377;DHT22;3221;48.858;10.128;2022-07-29T03:00:23;19.50;93.00
6377;DHT22;3221;48.858;10.128;2022-07-29T03:02:54;19.40;92.80
6377;DHT22;3221;48.858;10.128;2022-07-29T03:05:22;19.40;93.00
6377;DHT22;3221;48.858;10.128;2022-07-29T03:07:57;19.30;93.20
6377;DHT22;3221;48.858;10.128;2022-07-29T03:10:28;19.30;93.20
6377;DHT22;3221;48.858;10.128;2022-07-29T03:12:56;19.30;93.40
6377;DHT22;3221;48.858;10.128;2022-07-29T03:15:25;19.30;93.40
6377;DHT22;3221;48.858;10.128;2022-07-29T03:17:52;19.20;93.50
6377;DHT22;3221;48.858;10.128;2022-07-29T03:20:20;19.20;93.60
6377;DHT22;3221;48.858;10.128;2022-07-29T03:22:48;19.20;93.50
6377;DHT22;3221;48.858;10.128;2022-07-29T03:25:17;19.20;93.30
6377;DHT22;3221;48.858;10.128;2022-07-29T03:27:45;19.20;93.40
6377;DHT22;3221;48.858;10.128;2022-07-29T03:30:13;19.10;93.70
6377;DHT22;3221;48.858;10.128;2022-07-29T03:32:48;19.00;93.50
6377;DHT22;3221;48.858;10.128;2022-07-29T03:35:20;19.00;93.50
6377;DHT22;3221;48.858;10.128;2022-07-29T03:37:47;19.00;93.40
6377;DHT22;3221;48.858;10.128;2022-07-29T03:40:19;19.00;93.30
6377;DHT22;3221;48.858;10.128;2022-07-29T03:42:49;18.90;93.40
6377;DHT22;3221;48.858;10.128;2022-07-29T03:45:18;18.90;93.50
6377;DHT22;3221;48.858;10.128;2022-07-29T03:47:50;18.90;93.50
6377;DHT22;3221;48.858;10.128;2022-07-29T03:50:25;18.80;93.70
6377;DHT22;3221;48.858;10.128;2022-07-29T03:52:53;18.70;93.80
6377;DHT22;3221;48.858;10.128;2022-07-29T03:55:20;18.70;93.80
6377;DHT22;3221;48.858;10.128;2022-07-29T03:57:48;18.70;93.90
6377;DHT22;3221;48.858;10.128;2022-07-29T04:00:16;18.60;94.00
6377;DHT22;3221;48.858;10.128;2022-07-29T04:02:44;18.60;93.70
6377;DHT22;3221;48.858;10.128;2022-07-29T04:05:15;18.60;94.20
6377;DHT22;3221;48.858;10.128;2022-07-29T04:07:44;18.60;94.00
6377;DHT22;3221;48.858;10.128;2022-07-29T04:10:11;18.60;94.00
6377;DHT22;3221;48.858;10.128;2022-07-29T04:12:38;18.50;93.90
6377;DHT22;3221;48.858;10.128;2022-07-29T04:15:05;18.50;93.90
6377;DHT22;3221;48.858;10.128;2022-07-29T04:17:32;18.50;94.00
6377;DHT22;3221;48.858;10.128;2022-07-29T04:19:59;18.50;94.10
6377;DHT22;3221;48.858;10.128;2022-07-29T04:22:26;18.50;94.10
6377;DHT22;3221;48.858;10.128;2022-07-29T04:24:53;18.50;94.20
6377;DHT22;3221;48.858;10.128;2022-07-29T04:27:20;18.40;94.00
6377;DHT22;3221;48.858;10.128;2022-07-29T04:29:47;18.50;94.00
6377;DHT22;3221;48.858;10.128;2022-07-29T04:32:23;18.50;93.90
6377;DHT22;3221;48.858;10.128;2022-07-29T04:34:50;18.50;93.90
6377;DHT22;3221;48.858;10.128;2022-07-29T04:37:17;18.50;94.20
6377;DHT22;3221;48.858;10.128;2022-07-29T04:39:44;18.50;94.00
6377;DHT22;3221;48.858;10.128;2022-07-29T04:42:11;18.50;94.10
6377;DHT22;3221;48.858;10.128;2022-07-29T04:44:39;18.50;94.30
6377;DHT22;3221;48.858;10.128;2022-07-29T04:47:08;18.50;94.30
6377;DHT22;3221;48.858;10.128;2022-07-29T04:49:38;18.50;94.30
6377;DHT22;3221;48.858;10.128;2022-07-29T04:52:06;18.50;94.60
6377;DHT22;3221;48.858;10.128;2022-07-29T04:54:33;18.60;94.00
6377;DHT22;3221;48.858;10.128;2022-07-29T04:57:00;18.60;94.10
6377;DHT22;3221;48.858;10.128;2022-07-29T04:59:26;18.60;94.40
6377;DHT22;3221;48.858;10.128;2022-07-29T05:01:53;18.50;94.50
6377;DHT22;3221;48.858;10.128;2022-07-29T05:04:20;18.50;94.70
6377;DHT22;3221;48.858;10.128;2022-07-29T05:06:47;18.50;94.60
6377;DHT22;3221;48.858;10.128;2022-07-29T05:09:14;18.50;94.60
6377;DHT22;3221;48.858;10.128;2022-07-29T05:11:41;18.50;94.90
6377;DHT22;3221;48.858;10.128;2022-07-29T05:14:08;18.50;95.00
6377;DHT22;3221;48.858;10.128;2022-07-29T05:16:35;18.50;95.00
6377;DHT22;3221;48.858;10.128;2022-07-29T05:19:02;18.50;95.60
6377;DHT22;3221;48.858;10.128;2022-07-29T05:21:29;18.50;95.30
6377;DHT22;3221;48.858;10.128;2022-07-29T05:23:55;18.50;95.20
6377;DHT22;3221;48.858;10.128;2022-07-29T05:26:22;18.70;95.10
6377;DHT22;3221;48.858;10.128;2022-07-29T05:28:49;18.70;95.20
6377;DHT22;3221;48.858;10.128;2022-07-29T05:31:16;18.60;95.30
6377;DHT22;3221;48.858;10.128;2022-07-29T05:33:43;18.70;95.10
6377;DHT22;3221;48.858;10.128;2022-07-29T05:36:10;18.70;95.70
6377;DHT22;3221;48.858;10.128;2022-07-29T05:38:38;18.90;95.60
6377;DHT22;3221;48.858;10.128;2022-07-29T05:41:05;19.10;95.40
6377;DHT22;3221;48.858;10.128;2022-07-29T05:43:32;19.20;95.40
6377;DHT22;3221;48.858;10.128;2022-07-29T05:45:59;19.10;95.40
6377;DHT22;3221;48.858;10.128;2022-07-29T05:48:26;19.10;95.80
6377;DHT22;3221;48.858;10.128;2022-07-29T05:50:54;19.00;95.60
6377;DHT22;3221;48.858;10.128;2022-07-29T05:53:21;18.90;95.80
6377;DHT22;3221;48.858;10.128;2022-07-29T05:55:49;18.90;95.80
6377;DHT22;3221;48.858;10.128;2022-07-29T05:58:16;18.90;96.10
6377;DHT22;3221;48.858;10.128;2022-07-29T06:00:43;18.90;96.30
6377;DHT22;3221;48.858;10.128;2022-07-29T06:03:10;18.90;96.60
6377;DHT22;3221;48.858;10.128;2022-07-29T06:05:37;18.80;96.90
6377;DHT22;3221;48.858;10.128;2022-07-29T06:08:04;18.90;96.90
6377;DHT22;3221;48.858;10.128;2022-07-29T06:10:35;18.90;97.10
6377;DHT22;3221;48.858;10.128;2022-07-29T06:13:02;18.90;97.10
6377;DHT22;3221;48.858;10.128;2022-07-29T06:15:29;19.00;97.30
6377;DHT22;3221;48.858;10.128;2022-07-29T06:17:56;18.90;97.50
6377;DHT22;3221;48.858;10.128;2022-07-29T06:20:28;18.90;97.70
6377;DHT22;3221;48.858;10.128;2022-07-29T06:22:57;18.90;97.60
6377;DHT22;3221;48.858;10.128;2022-07-29T06:25:24;19.00;97.50
6377;DHT22;3221;48.858;10.128;2022-07-29T06:27:52;19.00;97.60
6377;DHT22;3221;48.858;10.128;2022-07-29T06:30:19;19.00;97.70
6377;DHT22;3221;48.858;10.128;2022-07-29T06:32:46;19.10;97.50
6377;DHT22;3221;48.858;10.128;2022-07-29T06:35:13;19.10;97.50
6377;DHT22;3221;48.858;10.128;2022-07-29T06:38:00;19.10;97.60
6377;DHT22;3221;48.858;10.128;2022-07-29T06:40:27;19.10;97.80
6377;DHT22;3221;48.858;10.128;2022-07-29T06:43:13;19.20;97.80
6377;DHT22;3221;48.858;10.128;2022-07-29T06:45:40;19.20;98.10
6377;DHT22;3221;48.858;10.128;2022-07-29T06:48:09;19.20;98.40
6377;DHT22;3221;48.858;10.128;2022-07-29T06:50:36;19.30;98.50
6377;DHT22;3221;48.858;10.128;2022-07-29T06:53:03;19.30;98.20
6377;DHT22;3221;48.858;10.128;2022-07-29T06:55:30;19.30;98.50
6377;DHT22;3221;48.858;10.128;2022-07-29T06:57:57;19.40;98.60
6377;DHT22;3221;48.858;10.128;2022-07-29T07:00:24;19.40;98.40
6377;DHT22;3221;48.858;10.128;2022-07-29T07:02:51;19.40;98.40
6377;DHT22;3221;48.858;10.128;2022-07-29T07:05:18;19.50;98.10
6377;DHT22;3221;48.858;10.128;2022-07-29T07:07:45;19.50;98.40
6377;DHT22;3221;48.858;10.128;2022-07-29T07:10:12;19.50;98.40
6377;DHT22;3221;48.858;10.128;2022-07-29T07:12:39;19.60;98.70
6377;DHT22;3221;48.858;10.128;2022-07-29T07:15:06;19.60;98.70
6377;DHT22;3221;48.858;10.128;2022-07-29T07:17:33;19.60;98.80
6377;DHT22;3221;48.858;10.128;2022-07-29T07:20:00;19.60;99.00
6377;DHT22;3221;48.858;10.128;2022-07-29T07:22:27;19.60;98.90
6377;DHT22;3221;48.858;10.128;2022-07-29T07:24:54;19.70;99.00
6377;DHT22;3221;48.858;10.128;2022-07-29T07:27:20;19.70;98.80
6377;DHT22;3221;48.858;10.128;2022-07-29T07:29:47;19.70;98.90
6377;DHT22;3221;48.858;10.128;2022-07-29T07:32:14;19.80;99.10
6377;DHT22;3221;48.858;10.128;2022-07-29T07:34:43;20.00;99.10
6377;DHT22;3221;48.858;10.128;2022-07-29T07:37:10;20.00;99.00
6377;DHT22;3221;48.858;10.128;2022-07-29T07:39:37;20.00;98.80
6377;DHT22;3221;48.858;10.128;2022-07-29T07:42:04;20.10;98.70
6377;DHT22;3221;48.858;10.128;2022-07-29T07:44:32;20.20;98.60
6377;DHT22;3221;48.858;10.128;2022-07-29T07:47:12;20.20;98.40
6377;DHT22;3221;48.858;10.128;2022-07-29T07:49:40;20.30;98.30
6377;DHT22;3221;48.858;10.128;2022-07-29T07:52:10;20.30;98.60
6377;DHT22;3221;48.858;10.128;2022-07-29T07:54:38;20.40;99.00
6377;DHT22;3221;48.858;10.128;2022-07-29T07:57:05;20.50;99.10
6377;DHT22;3221;48.858;10.128;2022-07-29T07:59:31;20.60;98.90
6377;DHT22;3221;48.858;10.128;2022-07-29T08:01:58;20.50;98.50
6377;DHT22;3221;48.858;10.128;2022-07-29T08:04:27;20.60;98.10
6377;DHT22;3221;48.858;10.128;2022-07-29T08:06:56;20.70;98.10
6377;DHT22;3221;48.858;10.128;2022-07-29T08:09:25;20.60;98.10
6377;DHT22;3221;48.858;10.128;2022-07-29T08:11:57;20.80;98.00
6377;DHT22;3221;48.858;10.128;2022-07-29T08:14:25;20.90;98.00
6377;DHT22;3221;48.858;10.128;2022-07-29T08:16:51;21.00;97.60
6377;DHT22;3221;48.858;10.128;2022-07-29T08:19:18;21.00;97.90
6377;DHT22;3221;48.858;10.128;2022-07-29T08:21:45;21.00;97.90
6377;DHT22;3221;48.858;10.128;2022-07-29T08:24:12;21.10;97.80
6377;DHT22;3221;48.858;10.128;2022-07-29T08:26:58;21.10;97.90
6377;DHT22;3221;48.858;10.128;2022-07-29T08:29:24;21.10;98.10
6377;DHT22;3221;48.858;10.128;2022-07-29T08:31:51;21.20;98.00
6377;DHT22;3221;48.858;10.128;2022-07-29T08:34:19;21.30;97.30
6377;DHT22;3221;48.858;10.128;2022-07-29T08:36:54;21.30;96.80
6377;DHT22;3221;48.858;10.128;2022-07-29T08:39:22;21.30;96.80
6377;DHT22;3221;48.858;10.128;2022-07-29T08:41:49;21.30;96.30
6377;DHT22;3221;48.858;10.128;2022-07-29T08:44:23;21.30;96.30
6377;DHT22;3221;48.858;10.128;2022-07-29T08:46:57;21.30;96.20
6377;DHT22;3221;48.858;10.128;2022-07-29T08:49:24;21.30;95.70
6377;DHT22;3221;48.858;10.128;2022-07-29T08:51:51;21.30;95.80
6377;DHT22;3221;48.858;10.128;2022-07-29T08:54:21;21.40;95.70
6377;DHT22;3221;48.858;10.128;2022-07-29T08:56:51;21.40;95.80
6377;DHT22;3221;48.858;10.128;2022-07-29T08:59:22;21.40;95.80
6377;DHT22;3221;48.858;10.128;2022-07-29T09:01:52;21.40;96.20
6377;DHT22;3221;48.858;10.128;2022-07-29T09:04:21;21.40;95.80
6377;DHT22;3221;48.858;10.128;2022-07-29T09:06:52;21.50;95.90
6377;DHT22;3221;48.858;10.128;2022-07-29T09:09:21;21.60;96.10
6377;DHT22;3221;48.858;10.128;2022-07-29T09:11:48;21.70;95.90
6377;DHT22;3221;48.858;10.128;2022-07-29T09:14:15;21.70;95.70
6377;DHT22;3221;48.858;10.128;2022-07-29T09:16:55;21.80;95.70
6377;DHT22;3221;48.858;10.128;2022-07-29T09:19:34;21.90;95.80
6377;DHT22;3221;48.858;10.128;2022-07-29T09:22:04;21.80;95.60
6377;DHT22;3221;48.858;10.128;2022-07-29T09:24:39;21.70;95.60
6377;DHT22;3221;48.858;10.128;2022-07-29T09:27:22;21.80;95.10
6377;DHT22;3221;48.858;10.128;2022-07-29T09:30:03;21.80;95.20
6377;DHT22;3221;48.858;10.128;2022-07-29T09:32:32;21.70;95.20
6377;DHT22;3221;48.858;10.128;2022-07-29T09:35:18;21.90;95.20
6377;DHT22;3221;48.858;10.128;2022-07-29T09:37:46;22.10;95.00
6377;DHT22;3221;48.858;10.128;2022-07-29T09:40:18;22.20;95.00
6377;DHT22;3221;48.858;10.128;2022-07-29T09:42:47;22.30;95.00
6377;DHT22;3221;48.858;10.128;2022-07-29T09:45:31;22.40;95.00
6377;DHT22;3221;48.858;10.128;2022-07-29T09:47:59;22.50;95.00
6377;DHT22;3221;48.858;10.128;2022-07-29T09:50:42;22.50;94.80
6377;DHT22;3221;48.858;10.128;2022-07-29T09:53:11;22.50;95.00
6377;DHT22;3221;48.858;10.128;2022-07-29T09:55:51;22.60;94.80
6377;DHT22;3221;48.858;10.128;2022-07-29T09:58:22;22.70;94.80
6377;DHT22;3221;48.858;10.128;2022-07-29T10:00:50;22.80;94.60
6377;DHT22;3221;48.858;10.128;2022-07-29T10:03:18;22.80;94.60
6377;DHT22;3221;48.858;10.128;2022-07-29T10:05:46;22.80;94.50
6377;DHT22;3221;48.858;10.128;2022-07-29T10:08:29;22.80;94.30
6377;DHT22;3221;48.858;10.128;2022-07-29T10:11:13;22.70;94.70
6377;DHT22;3221;48.858;10.128;2022-07-29T10:13:42;22.50;94.90
6377;DHT22;3221;48.858;10.128;2022-07-29T10:16:10;22.60;95.30
6377;DHT22;3221;48.858;10.128;2022-07-29T10:18:40;22.60;94.80
6377;DHT22;3221;48.858;10.128;2022-07-29T10:21:08;22.90;94.30
6377;DHT22;3221;48.858;10.128;2022-07-29T10:23:36;22.90;94.10
6377;DHT22;3221;48.858;10.128;2022-07-29T10:26:12;23.00;94.20
6377;DHT22;3221;48.858;10.128;2022-07-29T10:28:41;22.90;94.10
6377;DHT22;3221;48.858;10.128;2022-07-29T10:31:15;23.00;94.20
6377;DHT22;3221;48.858;10.128;2022-07-29T10:34:06;23.20;94.20
6377;DHT22;3221;48.858;10.128;2022-07-29T10:40:37;23.30;94.00
6377;DHT22;3221;48.858;10.128;2022-07-29T10:42:52;23.40;94.00
6377;DHT22;3221;48.858;10.128;2022-07-29T10:45:21;23.50;93.40
6377;DHT22;3221;48.858;10.128;2022-07-29T10:47:48;23.40;93.70
6377;DHT22;3221;48.858;10.128;2022-07-29T10:50:15;23.40;93.90
6377;DHT22;3221;48.858;10.128;2022-07-29T10:55:33;23.60;92.60
6377;DHT22;3221;48.858;10.128;2022-07-29T10:58:16;23.60;92.30
6377;DHT22;3221;48.858;10.128;2022-07-29T11:00:49;23.60;92.60
6377;DHT22;3221;48.858;10.128;2022-07-29T11:03:47;23.70;92.50
6377;DHT22;3221;48.858;10.128;2022-07-29T11:06:19;23.70;92.80
6377;DHT22;3221;48.858;10.128;2022-07-29T11:09:16;23.70;92.70
6377;DHT22;3221;48.858;10.128;2022-07-29T11:11:51;23.70;92.40
6377;DHT22;3221;48.858;10.128;2022-07-29T11:17:24;23.80;92.40
6377;DHT22;3221;48.858;10.128;2022-07-29T11:22:57;23.90;91.50
6377;DHT22;3221;48.858;10.128;2022-07-29T11:25:25;23.90;90.70
6377;DHT22;3221;48.858;10.128;2022-07-29T11:28:18;24.10;90.80
6377;DHT22;3221;48.858;10.128;2022-07-29T11:30:54;24.10;91.10
6377;DHT22;3221;48.858;10.128;2022-07-29T11:33:33;24.20;91.00
6377;DHT22;3221;48.858;10.128;2022-07-29T11:36:20;24.20;91.20
6377;DHT22;3221;48.858;10.128;2022-07-29T11:39:24;24.10;91.40
6377;DHT22;3221;48.858;10.128;2022-07-29T11:41:51;24.10;91.00
6377;DHT22;3221;48.858;10.128;2022-07-29T11:45:16;24.10;90.90
6377;DHT22;3221;48.858;10.128;2022-07-29T11:47:56;24.10;90.70
6377;DHT22;3221;48.858;10.128;2022-07-29T11:50:46;23.90;90.90
6377;DHT22;3221;48.858;10.128;2022-07-29T11:53:14;23.90;90.70
6377;DHT22;3221;48.858;10.128;2022-07-29T11:55:42;23.90;90.40
6377;DHT22;3221;48.858;10.128;2022-07-29T11:58:21;23.90;90.20
6377;DHT22;3221;48.858;10.128;2022-07-29T12:00:53;23.80;90.80
6377;DHT22;3221;48.858;10.128;2022-07-29T12:03:26;23.70;90.70
6377;DHT22;3221;48.858;10.128;2022-07-29T12:06:03;23.90;90.70
6377;DHT22;3221;48.858;10.128;2022-07-29T12:08:40;23.80;90.90
6377;DHT22;3221;48.858;10.128;2022-07-29T12:11:18;23.90;90.90
6377;DHT22;3221;48.858;10.128;2022-07-29T12:13:47;24.00;91.50
6377;DHT22;3221;48.858;10.128;2022-07-29T12:16:15;24.10;91.70
6377;DHT22;3221;48.858;10.128;2022-07-29T12:19:04;24.00;91.50
6377;DHT22;3221;48.858;10.128;2022-07-29T12:21:47;24.00;91.50
6377;DHT22;3221;48.858;10.128;2022-07-29T12:24:25;24.00;91.80
6377;DHT22;3221;48.858;10.128;2022-07-29T12:26:55;23.90;91.80
6377;DHT22;3221;48.858;10.128;2022-07-29T12:29:24;23.80;92.00
6377;DHT22;3221;48.858;10.128;2022-07-29T12:32:02;23.70;92.00
6377;DHT22;3221;48.858;10.128;2022-07-29T12:34:30;23.80;91.80
6377;DHT22;3221;48.858;10.128;2022-07-29T12:36:57;23.80;91.50
6377;DHT22;3221;48.858;10.128;2022-07-29T12:39:25;23.70;90.70
6377;DHT22;3221;48.858;10.128;2022-07-29T12:41:54;23.60;86.70
6377;DHT22;3221;48.858;10.128;2022-07-29T12:44:47;23.50;84.20
6377;DHT22;3221;48.858;10.128;2022-07-29T12:47:15;23.30;83.70
6377;DHT22;3221;48.858;10.128;2022-07-29T12:49:42;23.20;84.40
6377;DHT22;3221;48.858;10.128;2022-07-29T12:52:27;23.20;83.60
6377;DHT22;3221;48.858;10.128;2022-07-29T12:54:54;23.10;84.50
6377;DHT22;3221;48.858;10.128;2022-07-29T12:57:21;23.00;85.60
6377;DHT22;3221;48.858;10.128;2022-07-29T13:02:30;23.00;85.10
6377;DHT22;3221;48.858;10.128;2022-07-29T13:04:59;22.90;86.10
6377;DHT22;3221;48.858;10.128;2022-07-29T13:07:31;22.90;86.20
6377;DHT22;3221;48.858;10.128;2022-07-29T13:10:20;22.90;86.90
6377;DHT22;3221;48.858;10.128;2022-07-29T13:13:15;22.90;87.20
6377;DHT22;3221;48.858;10.128;2022-07-29T13:15:44;22.90;87.00
6377;DHT22;3221;48.858;10.128;2022-07-29T13:18:31;22.90;87.00
6377;DHT22;3221;48.858;10.128;2022-07-29T13:21:11;22.80;87.40
6377;DHT22;3221;48.858;10.128;2022-07-29T13:23:38;22.70;87.80
6377;DHT22;3221;48.858;10.128;2022-07-29T13:26:07;22.70;87.80
6377;DHT22;3221;48.858;10.128;2022-07-29T13:28:34;22.70;88.80
6377;DHT22;3221;48.858;10.128;2022-07-29T13:31:01;22.70;88.80
6377;DHT22;3221;48.858;10.128;2022-07-29T13:33:28;22.70;89.60
6377;DHT22;3221;48.858;10.128;2022-07-29T13:35:55;22.70;89.70
6377;DHT22;3221;48.858;10.128;2022-07-29T13:38:22;22.70;89.70
6377;DHT22;3221;48.858;10.128;2022-07-29T13:40:56;22.70;89.10
6377;DHT22;3221;48.858;10.128;2022-07-29T13:43:23;22.60;89.30
6377;DHT22;3221;48.858;10.128;2022-07-29T13:45:50;22.70;89.80
6377;DHT22;3221;48.858;10.128;2022-07-29T13:48:17;22.70;89.70
6377;DHT22;3221;48.858;10.128;2022-07-29T13:50:44;22.70;89.80
6377;DHT22;3221;48.858;10.128;2022-07-29T13:53:12;22.60;89.80
6377;DHT22;3221;48.858;10.128;2022-07-29T13:55:43;22.60;90.00
6377;DHT22;3221;48.858;10.128;2022-07-29T13:58:10;22.60;90.20
6377;DHT22;3221;48.858;10.128;2022-07-29T14:00:37;22.60;90.40
6377;DHT22;3221;48.858;10.128;2022-07-29T14:03:04;22.60;90.50
6377;DHT22;3221;48.858;10.128;2022-07-29T14:05:32;22.60;90.60
6377;DHT22;3221;48.858;10.128;2022-07-29T14:07:59;22.60;90.70
6377;DHT22;3221;48.858;10.128;2022-07-29T14:10:26;22.60;90.80
6377;DHT22;3221;48.858;10.128;2022-07-29T14:12:53;22.60;90.80
6377;DHT22;3221;48.858;10.128;2022-07-29T14:15:20;22.60;90.80
6377;DHT22;3221;48.858;10.128;2022-07-29T14:17:47;22.60;91.10
6377;DHT22;3221;48.858;10.128;2022-07-29T14:20:14;22.60;91.20
6377;DHT22;3221;48.858;10.128;2022-07-29T14:22:42;22.60;91.30
6377;DHT22;3221;48.858;10.128;2022-07-29T14:25:11;22.60;91.50
6377;DHT22;3221;48.858;10.128;2022-07-29T14:27:42;22.70;91.50
6377;DHT22;3221;48.858;10.128;2022-07-29T14:30:10;22.70;91.60
6377;DHT22;3221;48.858;10.128;2022-07-29T14:32:37;22.60;91.70
6377;DHT22;3221;48.858;10.128;2022-07-29T14:35:04;22.60;91.80
6377;DHT22;3221;48.858;10.128;2022-07-29T14:37:32;22.70;92.30
6377;DHT22;3221;48.858;10.128;2022-07-29T14:40:06;22.80;92.30
6377;DHT22;3221;48.858;10.128;2022-07-29T14:42:34;22.70;92.30
6377;DHT22;3221;48.858;10.128;2022-07-29T14:45:01;22.70;92.30
6377;DHT22;3221;48.858;10.128;2022-07-29T14:47:27;22.70;92.30
6377;DHT22;3221;48.858;10.128;2022-07-29T14:49:54;22.70;92.20
6377;DHT22;3221;48.858;10.128;2022-07-29T14:52:21;22.70;92.00
6377;DHT22;3221;48.858;10.128;2022-07-29T14:54:48;22.80;91.90
6377;DHT22;3221;48.858;10.128;2022-07-29T14:57:15;22.80;91.90
6377;DHT22;3221;48.858;10.128;2022-07-29T14:59:43;22.80;91.90
6377;DHT22;3221;48.858;10.128;2022-07-29T15:02:10;22.80;92.00
6377;DHT22;3221;48.858;10.128;2022-07-29T15:04:39;22.80;92.10
6377;DHT22;3221;48.858;10.128;2022-07-29T15:07:06;22.70;92.10
6377;DHT22;3221;48.858;10.128;2022-07-29T15:09:33;22.70;92.20
6377;DHT22;3221;48.858;10.128;2022-07-29T15:12:14;22.70;92.20
6377;DHT22;3221;48.858;10.128;2022-07-29T15:14:42;22.70;92.20
6377;DHT22;3221;48.858;10.128;2022-07-29T15:17:09;22.70;92.30
6377;DHT22;3221;48.858;10.128;2022-07-29T15:19:36;22.70;92.80
6377;DHT22;3221;48.858;10.128;2022-07-29T15:22:03;22.70;92.50
6377;DHT22;3221;48.858;10.128;2022-07-29T15:24:33;22.70;92.60
6377;DHT22;3221;48.858;10.128;2022-07-29T15:27:00;22.60;92.70
6377;DHT22;3221;48.858;10.128;2022-07-29T15:29:27;22.60;92.90
6377;DHT22;3221;48.858;10.128;2022-07-29T15:31:54;22.60;92.60
6377;DHT22;3221;48.858;10.128;2022-07-29T15:34:22;22.50;92.50
6377;DHT22;3221;48.858;10.128;2022-07-29T15:36:52;22.50;92.70
6377;DHT22;3221;48.858;10.128;2022-07-29T15:39:20;22.40;92.90
6377;DHT22;3221;48.858;10.128;2022-07-29T15:41:48;22.40;93.30
6377;DHT22;3221;48.858;10.128;2022-07-29T15:44:15;22.30;93.30
6377;DHT22;3221;48.858;10.128;2022-07-29T15:46:42;22.10;93.60
6377;DHT22;3221;48.858;10.128;2022-07-29T15:52:15;22.10;93.50
6377;DHT22;3221;48.858;10.128;2022-07-29T15:54:43;22.10;93.40
6377;DHT22;3221;48.858;10.128;2022-07-29T15:57:10;22.10;93.60
6377;DHT22;3221;48.858;10.128;2022-07-29T15:59:37;22.00;93.80
6377;DHT22;3221;48.858;10.128;2022-07-29T16:02:05;22.20;93.60
6377;DHT22;3221;48.858;10.128;2022-07-29T16:04:32;22.10;93.80
6377;DHT22;3221;48.858;10.128;2022-07-29T16:06:59;22.20;93.40
6377;DHT22;3221;48.858;10.128;2022-07-29T16:09:26;22.00;93.60
6377;DHT22;3221;48.858;10.128;2022-07-29T16:11:54;22.10;93.60
6377;DHT22;3221;48.858;10.128;2022-07-29T16:14:22;22.00;93.80
6377;DHT22;3221;48.858;10.128;2022-07-29T16:16:54;21.80;94.50
6377;DHT22;3221;48.858;10.128;2022-07-29T16:19:21;21.80;94.60
6377;DHT22;3221;48.858;10.128;2022-07-29T16:21:48;21.70;94.80
6377;DHT22;3221;48.858;10.128;2022-07-29T16:24:15;21.60;95.10
6377;DHT22;3221;48.858;10.128;2022-07-29T16:26:42;21.60;95.30
6377;DHT22;3221;48.858;10.128;2022-07-29T16:29:09;21.60;95.30
6377;DHT22;3221;48.858;10.128;2022-07-29T16:31:36;21.60;95.10
6377;DHT22;3221;48.858;10.128;2022-07-29T16:34:03;21.70;95.00
6377;DHT22;3221;48.858;10.128;2022-07-29T16:36:30;21.70;95.30